createdAt,value
2023-03-10T00:01:25.347Z,26.53
2023-03-10T00:02:25.344Z,26.45
2023-03-10T00:03:25.315Z,26.61
2023-03-10T00:04:25.333Z,26.49
2023-03-10T00:05:25.348Z,26.53
2023-03-10T00:06:25.286Z,26.52
2023-03-10T00:07:25.273Z,26.28
2023-03-10T00:08:27.138Z,26.37
2023-03-10T00:10:25.239Z,26.38
2023-03-10T00:11:25.241Z,26.45
2023-03-10T00:13:25.211Z,26.65
2023-03-10T00:14:25.198Z,26.57
2023-03-10T00:15:25.294Z,26.75
2023-03-10T00:17:25.161Z,26.82
2023-03-10T00:18:25.172Z,26.70
2023-03-10T00:19:25.141Z,26.82
2023-03-10T00:20:25.138Z,26.84
2023-03-10T00:21:25.118Z,27.17
2023-03-10T00:22:25.109Z,26.95
2023-03-10T00:23:25.097Z,26.94
2023-03-10T00:24:25.087Z,26.87
2023-03-10T00:25:25.075Z,26.79
2023-03-10T00:26:25.067Z,26.81
2023-03-10T00:27:25.062Z,27.07
2023-03-10T00:28:25.043Z,26.94
2023-03-10T00:29:25.032Z,26.94
2023-03-10T00:30:25.029Z,26.79
2023-03-10T00:31:25.158Z,27.11
2023-03-10T00:33:24.992Z,26.75
2023-03-10T00:34:25.004Z,26.76
2023-03-10T00:35:24.972Z,26.72
2023-03-10T00:36:24.964Z,26.82
2023-03-10T00:37:24.952Z,26.85
2023-03-10T00:38:24.939Z,26.76
2023-03-10T00:39:24.931Z,26.79
2023-03-10T00:40:24.917Z,26.87
2023-03-10T00:41:24.911Z,26.79
2023-03-10T00:42:24.896Z,26.75
2023-03-10T00:43:24.885Z,26.76
2023-03-10T00:44:24.877Z,26.83
2023-03-10T00:45:24.862Z,26.75
2023-03-10T00:46:24.913Z,26.84
2023-03-10T00:47:24.842Z,26.86
2023-03-10T00:48:24.832Z,26.77
2023-03-10T00:49:24.820Z,26.74
2023-03-10T00:50:24.828Z,26.83
2023-03-10T00:51:24.798Z,26.85
2023-03-10T00:52:24.789Z,26.79
2023-03-10T00:53:24.779Z,26.89
2023-03-10T00:54:24.785Z,26.91
2023-03-10T00:57:24.739Z,26.73
2023-03-10T00:58:24.723Z,26.77
2023-03-10T00:59:24.721Z,26.70
2023-03-10T01:00:24.701Z,26.33
2023-03-10T01:03:24.665Z,26.64
2023-03-10T01:04:24.725Z,26.76
2023-03-10T01:06:24.656Z,26.81
2023-03-10T01:07:24.622Z,26.79
2023-03-10T01:08:24.613Z,26.88
2023-03-10T01:09:24.603Z,26.85
2023-03-10T01:10:24.589Z,26.77
2023-03-10T01:11:24.578Z,26.74
2023-03-10T01:12:24.570Z,26.72
2023-03-10T01:13:24.562Z,26.68
2023-03-10T01:14:24.545Z,26.83
2023-03-10T01:15:24.533Z,26.81
2023-03-10T01:16:24.590Z,26.86
2023-03-10T01:17:24.516Z,27.17
2023-03-10T01:18:24.502Z,26.77
2023-03-10T01:19:24.506Z,26.85
2023-03-10T01:20:24.478Z,26.89
2023-03-10T01:25:24.425Z,26.75
2023-03-10T01:26:24.422Z,26.74
2023-03-10T01:27:24.405Z,26.85
2023-03-10T01:28:24.393Z,26.89
2023-03-10T01:29:24.386Z,26.84
2023-03-10T01:30:24.369Z,26.82
2023-03-10T01:31:24.435Z,26.92
2023-03-10T01:32:24.362Z,27.08
2023-03-10T01:33:24.335Z,26.81
2023-03-10T01:38:24.302Z,26.87
2023-03-10T01:39:24.269Z,26.80
2023-03-10T01:40:24.259Z,26.87
2023-03-10T01:43:24.226Z,26.79
2023-03-10T01:44:24.230Z,26.85
2023-03-10T01:45:24.207Z,26.79
2023-03-10T01:46:24.269Z,26.78
2023-03-10T01:47:24.181Z,27.16
2023-03-10T01:48:24.168Z,26.75
2023-03-10T01:49:24.160Z,26.90
2023-03-10T01:50:24.145Z,26.88
2023-03-10T01:51:24.141Z,26.92
2023-03-10T01:52:24.122Z,26.85
2023-03-10T01:53:24.121Z,26.81
2023-03-10T01:54:24.128Z,26.84
2023-03-10T01:55:24.093Z,27.08
2023-03-10T01:56:24.078Z,26.95
2023-03-10T01:57:24.069Z,26.87
2023-03-10T01:58:24.056Z,26.90
2023-03-10T01:59:24.047Z,26.95
2023-03-10T02:00:24.038Z,26.95
2023-03-10T02:02:24.060Z,26.80
2023-03-10T02:03:24.004Z,27.12
2023-03-10T02:04:23.995Z,26.85
2023-03-10T02:05:23.981Z,26.84
2023-03-10T02:06:23.968Z,26.79
2023-03-10T02:07:23.958Z,26.70
2023-03-10T02:08:23.952Z,27.00
2023-03-10T02:09:23.940Z,26.77
2023-03-10T02:10:23.948Z,26.85
2023-03-10T02:11:23.915Z,27.16
2023-03-10T02:12:23.914Z,26.95
2023-03-10T02:13:23.894Z,26.94
2023-03-10T02:14:23.886Z,26.92
2023-03-10T02:15:23.878Z,26.81
2023-03-10T02:17:23.977Z,27.21
2023-03-10T02:18:23.872Z,26.93
2023-03-10T02:19:23.836Z,26.88
2023-03-10T02:20:23.818Z,26.77
2023-03-10T02:21:23.822Z,26.77
2023-03-10T02:22:23.801Z,27.13
2023-03-10T02:23:23.797Z,26.99
2023-03-10T02:24:23.775Z,26.97
2023-03-10T02:26:23.777Z,27.00
2023-03-10T02:27:23.747Z,27.49
2023-03-10T02:29:23.725Z,27.16
2023-03-10T02:30:23.734Z,27.35
2023-03-10T02:31:23.740Z,27.36
2023-03-10T02:38:23.625Z,26.89
2023-03-10T02:39:23.615Z,26.83
2023-03-10T02:40:23.605Z,26.80
2023-03-10T02:41:23.593Z,27.10
2023-03-10T02:44:23.565Z,26.98
2023-03-10T02:45:23.627Z,26.83
2023-03-10T02:46:23.539Z,26.78
2023-03-10T02:47:23.534Z,27.15
2023-03-10T02:48:24.943Z,26.96
2023-03-10T02:50:23.496Z,27.03
2023-03-10T02:51:23.482Z,27.30
2023-03-10T02:52:23.474Z,27.33
2023-03-10T02:53:23.472Z,27.33
2023-03-10T02:55:23.441Z,27.04
2023-03-10T02:56:23.427Z,26.93
2023-03-10T02:57:23.420Z,26.88
2023-03-10T02:58:23.437Z,26.90
2023-03-10T03:00:23.387Z,27.13
2023-03-10T03:01:23.459Z,26.95
2023-03-10T03:02:23.356Z,27.25
2023-03-10T03:03:23.359Z,27.03
2023-03-10T03:04:23.338Z,27.06
2023-03-10T03:05:23.329Z,27.22
2023-03-10T03:06:23.318Z,26.98
2023-03-10T03:07:23.309Z,27.28
2023-03-10T03:08:23.294Z,27.31
2023-03-10T03:09:23.285Z,27.34
2023-03-10T03:10:23.270Z,27.44
2023-03-10T03:11:23.266Z,27.08
2023-03-10T03:12:23.265Z,27.37
2023-03-10T03:13:23.239Z,27.28
2023-03-10T03:15:23.220Z,26.81
2023-03-10T03:16:23.243Z,27.10
2023-03-10T03:17:23.199Z,26.85
2023-03-10T03:18:23.187Z,27.19
2023-03-10T03:19:23.174Z,26.94
2023-03-10T03:20:23.158Z,27.26
2023-03-10T03:21:23.161Z,27.32
2023-03-10T03:22:23.144Z,27.34
2023-03-10T03:25:23.116Z,27.30
2023-03-10T03:26:23.100Z,27.00
2023-03-10T03:27:23.085Z,27.19
2023-03-10T03:28:23.070Z,27.31
2023-03-10T03:29:23.061Z,27.38
2023-03-10T03:30:23.083Z,27.13
2023-03-10T03:31:23.137Z,27.06
2023-03-10T03:32:23.045Z,26.91
2023-03-10T03:40:22.949Z,27.12
2023-03-10T03:42:22.916Z,27.28
2023-03-10T03:43:22.913Z,27.30
2023-03-10T03:44:22.912Z,27.13
2023-03-10T03:45:22.887Z,27.34
2023-03-10T03:46:22.998Z,27.06
2023-03-10T03:47:22.862Z,27.30
2023-03-10T03:48:22.858Z,27.33
2023-03-10T03:49:22.842Z,27.03
2023-03-10T03:50:22.824Z,27.21
2023-03-10T03:51:22.823Z,27.35
2023-03-10T03:53:22.800Z,27.25
2023-03-10T03:54:22.942Z,27.03
2023-03-10T03:55:22.777Z,26.90
2023-03-10T03:56:22.761Z,26.92
2023-03-10T03:57:22.753Z,27.21
2023-03-10T03:59:22.731Z,27.09
2023-03-10T04:01:22.717Z,27.20
2023-03-10T04:02:22.741Z,26.97
2023-03-10T04:03:22.743Z,27.14
2023-03-10T04:04:22.676Z,26.89
2023-03-10T04:05:22.674Z,27.15
2023-03-10T04:06:22.656Z,26.98
2023-03-10T04:07:22.647Z,27.16
2023-03-10T04:08:22.632Z,26.92
2023-03-10T04:09:22.623Z,27.19
2023-03-10T04:10:22.612Z,27.30
2023-03-10T04:11:22.599Z,27.30
2023-03-10T04:12:22.590Z,27.02
2023-03-10T04:13:22.588Z,27.01
2023-03-10T04:14:22.565Z,26.85
2023-03-10T04:16:22.544Z,26.97
2023-03-10T04:17:22.532Z,26.96
2023-03-10T04:19:22.512Z,26.83
2023-03-10T04:20:22.506Z,27.22
2023-03-10T04:22:22.479Z,26.88
2023-03-10T04:23:22.472Z,26.90
2023-03-10T04:25:22.448Z,26.80
2023-03-10T04:26:22.435Z,26.75
2023-03-10T04:27:22.424Z,27.13
2023-03-10T04:29:22.405Z,26.98
2023-03-10T04:30:22.391Z,27.31
2023-03-10T04:31:22.573Z,26.94
2023-03-10T04:32:22.502Z,26.93
2023-03-10T04:33:22.361Z,27.13
2023-03-10T04:34:22.487Z,27.20
2023-03-10T04:35:22.342Z,27.07
2023-03-10T04:37:22.321Z,27.00
2023-03-10T04:39:22.304Z,27.23
2023-03-10T04:40:22.287Z,26.89
2023-03-10T04:41:22.276Z,26.98
2023-03-10T04:43:22.252Z,27.32
2023-03-10T04:44:30.976Z,27.30
2023-03-10T04:45:23.261Z,27.29
2023-03-10T04:46:22.303Z,27.61
2023-03-10T04:47:22.222Z,27.10
2023-03-10T04:48:22.199Z,27.38
2023-03-10T04:49:22.186Z,27.39
2023-03-10T04:50:22.342Z,27.36
2023-03-10T04:51:22.167Z,27.16
2023-03-10T04:52:22.159Z,27.07
2023-03-10T04:53:22.150Z,27.00
2023-03-10T04:54:22.280Z,26.96
2023-03-10T04:55:22.120Z,26.91
2023-03-10T04:56:22.129Z,27.19
2023-03-10T04:57:22.100Z,27.27
2023-03-10T05:00:22.159Z,27.00
2023-03-10T05:01:22.083Z,27.24
2023-03-10T05:02:22.043Z,26.90
2023-03-10T05:03:22.038Z,26.85
2023-03-10T05:04:22.094Z,27.18
2023-03-10T05:05:22.010Z,27.18
2023-03-10T05:06:22.043Z,26.93
2023-03-10T05:07:21.986Z,27.28
2023-03-10T05:08:21.974Z,27.36
2023-03-10T05:09:21.964Z,27.41
2023-03-10T05:12:21.943Z,27.12
2023-03-10T05:13:21.919Z,27.29
2023-03-10T05:14:21.907Z,27.28
2023-03-10T05:15:21.898Z,27.12
2023-03-10T05:16:22.036Z,27.36
2023-03-10T05:17:21.896Z,26.99
2023-03-10T05:18:21.866Z,27.22
2023-03-10T05:19:21.853Z,27.02
2023-03-10T05:20:21.840Z,27.00
2023-03-10T05:21:21.882Z,27.01
2023-03-10T05:22:21.841Z,26.98
2023-03-10T05:23:21.813Z,26.97
2023-03-10T05:24:21.799Z,27.16
2023-03-10T05:25:21.787Z,26.92
2023-03-10T05:26:21.783Z,26.84
2023-03-10T05:27:21.772Z,26.78
2023-03-10T05:28:22.771Z,26.83
2023-03-10T05:29:21.751Z,26.78
2023-03-10T05:30:21.733Z,26.74
2023-03-10T05:32:21.749Z,27.08
2023-03-10T05:33:21.699Z,26.91
2023-03-10T05:34:21.686Z,26.88
2023-03-10T05:35:21.679Z,26.79
2023-03-10T05:36:21.669Z,27.05
2023-03-10T05:37:21.654Z,26.96
2023-03-10T05:38:21.667Z,27.24
2023-03-10T05:39:21.632Z,26.97
2023-03-10T05:40:21.621Z,26.93
2023-03-10T05:41:21.609Z,27.19
2023-03-10T05:42:21.601Z,27.38
2023-03-10T05:43:21.588Z,27.03
2023-03-10T05:44:21.583Z,26.95
2023-03-10T05:45:21.572Z,26.86
2023-03-10T05:46:21.607Z,26.92
2023-03-10T05:47:21.547Z,26.82
2023-03-10T05:48:21.537Z,26.80
2023-03-10T05:49:21.523Z,26.77
2023-03-10T05:50:21.512Z,27.14
2023-03-10T05:51:21.501Z,27.23
2023-03-10T05:52:21.493Z,27.35
2023-03-10T05:53:21.494Z,27.00
2023-03-10T05:54:21.488Z,27.06
2023-03-10T05:55:21.457Z,26.87
2023-03-10T05:56:21.449Z,26.81
2023-03-10T05:57:21.437Z,26.89
2023-03-10T05:58:21.429Z,26.67
2023-03-10T05:59:21.412Z,26.74
2023-03-10T06:00:21.405Z,26.81
2023-03-10T06:01:21.461Z,26.77
2023-03-10T06:02:21.380Z,26.71
2023-03-10T06:03:21.561Z,26.74
2023-03-10T06:04:21.405Z,26.73
2023-03-10T06:05:21.347Z,26.87
2023-03-10T06:06:21.337Z,26.73
2023-03-10T06:07:21.326Z,26.87
2023-03-10T06:08:21.317Z,26.86
2023-03-10T06:09:21.311Z,26.88
2023-03-10T06:10:21.331Z,27.13
2023-03-10T06:11:21.281Z,26.87
2023-03-10T06:12:21.274Z,27.12
2023-03-10T06:14:21.249Z,27.00
2023-03-10T06:16:21.330Z,26.87
2023-03-10T06:17:21.216Z,26.75
2023-03-10T06:19:21.199Z,26.96
2023-03-10T06:20:21.186Z,27.15
2023-03-10T06:21:21.172Z,26.89
2023-03-10T06:22:21.166Z,27.13
2023-03-10T06:23:21.151Z,26.90
2023-03-10T06:24:21.142Z,26.91
2023-03-10T06:26:21.145Z,26.85
2023-03-10T06:27:21.108Z,27.20
2023-03-10T06:28:21.100Z,27.18
2023-03-10T06:29:21.088Z,27.07
2023-03-10T06:30:21.076Z,27.33
2023-03-10T06:31:21.154Z,27.37
2023-03-10T06:32:21.151Z,27.45
2023-03-10T06:33:21.045Z,27.14
2023-03-10T06:34:21.034Z,26.99
2023-03-10T06:36:21.089Z,27.27
2023-03-10T06:37:21.003Z,27.07
2023-03-10T06:38:20.996Z,27.26
2023-03-10T06:39:21.014Z,26.94
2023-03-10T06:40:20.976Z,26.95
2023-03-10T06:41:20.959Z,27.14
2023-03-10T06:42:20.973Z,26.91
2023-03-10T06:43:20.949Z,26.89
2023-03-10T06:47:20.894Z,26.80
2023-03-10T06:48:20.890Z,26.78
2023-03-10T06:49:20.872Z,26.85
2023-03-10T06:50:20.862Z,26.89
2023-03-10T06:51:20.851Z,27.13
2023-03-10T06:54:20.819Z,26.83
2023-03-10T06:57:21.137Z,27.10
2023-03-10T06:58:20.801Z,26.93
2023-03-10T07:00:20.776Z,27.07
2023-03-10T07:01:20.823Z,26.87
2023-03-10T07:02:20.730Z,26.84
2023-03-10T07:03:20.718Z,26.90
2023-03-10T07:05:20.694Z,27.06
2023-03-10T07:07:20.674Z,26.85
2023-03-10T07:08:20.662Z,27.18
2023-03-10T07:09:20.668Z,27.02
2023-03-10T07:10:20.643Z,26.91
2023-03-10T07:11:20.632Z,26.84
2023-03-10T07:12:20.619Z,27.21
2023-03-10T07:13:20.605Z,26.89
2023-03-10T07:14:20.620Z,27.14
2023-03-10T07:15:20.586Z,27.19
2023-03-10T07:16:20.612Z,26.93
2023-03-10T07:17:20.562Z,26.99
2023-03-10T07:18:20.553Z,26.96
2023-03-10T07:19:20.539Z,27.26
2023-03-10T07:20:20.529Z,27.01
2023-03-10T07:22:20.511Z,26.93
2023-03-10T07:23:20.496Z,26.85
2023-03-10T07:25:20.473Z,26.90
2023-03-10T07:26:20.471Z,26.89
2023-03-10T07:29:20.428Z,26.79
2023-03-10T07:30:20.441Z,27.15
2023-03-10T07:31:20.451Z,26.94
2023-03-10T07:32:20.456Z,26.88
2023-03-10T07:33:20.389Z,26.93
2023-03-10T07:34:20.378Z,26.91
2023-03-10T07:35:20.364Z,26.96
2023-03-10T07:36:20.483Z,26.68
2023-03-10T07:37:20.346Z,26.81
2023-03-10T07:38:20.333Z,26.86
2023-03-10T07:39:20.320Z,27.17
2023-03-10T07:40:20.312Z,26.74
2023-03-10T07:42:20.288Z,26.81
2023-03-10T07:43:20.276Z,26.85
2023-03-10T07:44:20.274Z,26.79
2023-03-10T07:45:20.255Z,26.83
2023-03-10T07:46:20.365Z,26.78
2023-03-10T07:47:20.235Z,26.80
2023-03-10T07:48:20.225Z,26.77
2023-03-10T07:49:22.177Z,26.84
2023-03-10T07:50:20.208Z,27.16
2023-03-10T07:51:20.189Z,26.90
2023-03-10T07:52:20.181Z,26.86
2023-03-10T07:53:20.172Z,26.89
2023-03-10T07:54:20.164Z,26.84
2023-03-10T07:55:20.145Z,26.88
2023-03-10T07:58:20.114Z,26.87
2023-03-10T07:59:20.103Z,26.89
2023-03-10T08:00:20.093Z,26.76
2023-03-10T08:01:20.120Z,27.18
2023-03-10T08:02:20.103Z,26.92
2023-03-10T08:03:20.072Z,26.85
2023-03-10T08:04:20.211Z,26.89
2023-03-10T08:05:20.131Z,26.86
2023-03-10T08:08:20.006Z,26.99
2023-03-10T08:09:19.993Z,27.27
2023-03-10T08:10:19.983Z,27.04
2023-03-10T08:12:19.962Z,26.98
2023-03-10T08:13:19.982Z,26.82
2023-03-10T08:14:21.150Z,26.92
2023-03-10T08:15:19.926Z,26.89
2023-03-10T08:16:19.975Z,26.93
2023-03-10T08:17:19.907Z,26.91
2023-03-10T08:18:19.919Z,26.83
2023-03-10T08:19:19.885Z,26.80
2023-03-10T08:20:19.874Z,26.88
2023-03-10T08:26:19.812Z,26.75
2023-03-10T08:27:19.798Z,27.01
2023-03-10T08:28:19.784Z,26.91
2023-03-10T08:29:19.778Z,26.63
2023-03-10T08:30:19.762Z,26.84
2023-03-10T08:33:19.729Z,26.91
2023-03-10T08:34:19.740Z,26.82
2023-03-10T08:35:19.722Z,26.77
2023-03-10T08:36:19.727Z,26.74
2023-03-10T08:37:19.685Z,27.04
2023-03-10T08:38:19.678Z,26.90
2023-03-10T08:39:19.671Z,26.95
2023-03-10T08:40:19.653Z,26.86
2023-03-10T08:41:19.644Z,26.82
2023-03-10T08:42:19.631Z,26.90
2023-03-10T08:43:19.619Z,26.91
2023-03-10T08:44:19.608Z,26.91
2023-03-10T08:45:19.603Z,26.83
2023-03-10T08:46:19.659Z,26.82
2023-03-10T08:47:19.580Z,26.78
2023-03-10T08:48:19.570Z,27.17
2023-03-10T08:49:19.555Z,27.19
2023-03-10T08:50:19.566Z,27.02
2023-03-10T08:51:19.539Z,26.91
2023-03-10T08:52:19.526Z,26.95
2023-03-10T08:53:19.513Z,26.84
2023-03-10T08:54:19.530Z,27.13
2023-03-10T08:55:19.494Z,27.29
2023-03-10T08:56:19.481Z,27.07
2023-03-10T08:57:19.468Z,26.84
2023-03-10T08:58:19.461Z,26.91
2023-03-10T08:59:19.444Z,27.19
2023-03-10T09:00:19.438Z,27.00
2023-03-10T09:01:19.424Z,27.09
2023-03-10T09:02:19.483Z,27.28
2023-03-10T09:03:19.457Z,27.03
2023-03-10T09:04:19.394Z,27.01
2023-03-10T09:05:21.700Z,26.99
2023-03-10T09:06:19.390Z,26.84
2023-03-10T09:07:19.359Z,26.76
2023-03-10T09:08:19.362Z,26.79
2023-03-10T09:09:19.363Z,26.79
2023-03-10T09:10:19.328Z,26.85
2023-03-10T09:11:19.324Z,26.84
2023-03-10T09:12:19.310Z,26.82
2023-03-10T09:13:19.294Z,26.84
2023-03-10T09:14:19.285Z,26.89
2023-03-10T09:15:19.273Z,26.86
2023-03-10T09:16:19.328Z,26.92
2023-03-10T09:17:19.253Z,26.98
2023-03-10T09:18:19.250Z,26.72
2023-03-10T09:19:19.230Z,26.75
2023-03-10T09:20:19.221Z,26.77
2023-03-10T09:21:19.212Z,26.75
2023-03-10T09:22:19.228Z,26.80
2023-03-10T09:23:19.189Z,26.79
2023-03-10T09:24:19.174Z,26.82
2023-03-10T09:25:19.161Z,26.83
2023-03-10T09:26:19.151Z,26.73
2023-03-10T09:27:19.158Z,26.54
2023-03-10T09:28:19.128Z,26.75
2023-03-10T09:29:20.363Z,26.79
2023-03-10T09:30:19.105Z,26.87
2023-03-10T09:31:19.147Z,26.87
2023-03-10T09:32:19.287Z,26.92
2023-03-10T09:33:19.072Z,26.90
2023-03-10T09:34:19.064Z,27.20
2023-03-10T09:35:19.100Z,27.00
2023-03-10T09:36:19.124Z,26.99
2023-03-10T09:37:19.029Z,26.89
2023-03-10T09:38:19.048Z,26.78
2023-03-10T09:39:19.008Z,26.78
2023-03-10T09:40:18.999Z,26.65
2023-03-10T09:44:18.957Z,26.69
2023-03-10T09:45:18.943Z,26.49
2023-03-10T09:46:18.992Z,26.46
2023-03-10T09:47:20.163Z,26.53
2023-03-10T09:48:18.914Z,26.60
2023-03-10T09:49:18.901Z,26.77
2023-03-10T09:50:18.891Z,26.65
2023-03-10T09:51:18.879Z,26.77
2023-03-10T09:52:18.871Z,26.84
2023-03-10T09:53:18.855Z,26.81
2023-03-10T09:54:18.870Z,26.62
2023-03-10T09:55:18.837Z,26.77
2023-03-10T09:56:18.835Z,26.78
2023-03-10T09:57:18.817Z,27.11
2023-03-10T09:58:18.805Z,26.93
2023-03-10T09:59:18.790Z,27.24
2023-03-10T10:00:18.780Z,26.94
2023-03-10T10:01:18.769Z,27.03
2023-03-10T10:02:18.757Z,26.68
2023-03-10T10:03:18.795Z,26.85
2023-03-10T10:04:18.886Z,26.74
2023-03-10T10:05:18.832Z,26.79
2023-03-10T10:06:18.713Z,26.76
2023-03-10T10:07:18.712Z,26.76
2023-03-10T10:08:18.691Z,26.72
2023-03-10T10:09:18.679Z,26.77
2023-03-10T10:10:18.706Z,26.53
2023-03-10T10:11:18.662Z,26.57
2023-03-10T10:12:18.659Z,26.95
2023-03-10T10:13:18.636Z,26.84
2023-03-10T10:14:31.882Z,26.91
2023-03-10T10:15:19.648Z,26.65
2023-03-10T10:16:33.526Z,26.58
2023-03-10T10:17:19.705Z,26.73
2023-03-10T10:18:20.903Z,26.74
2023-03-10T10:19:18.568Z,27.09
2023-03-10T10:20:18.555Z,26.96
2023-03-10T10:21:18.549Z,26.87
2023-03-10T10:22:18.543Z,26.64
2023-03-10T10:23:18.524Z,26.78
2023-03-10T10:24:18.513Z,27.03
2023-03-10T10:25:18.530Z,26.87
2023-03-10T10:26:18.511Z,27.13
2023-03-10T10:27:21.461Z,26.79
2023-03-10T10:28:18.476Z,26.82
2023-03-10T10:29:18.460Z,26.86
2023-03-10T10:30:18.445Z,26.82
2023-03-10T10:31:18.530Z,26.76
2023-03-10T10:32:18.495Z,26.55
2023-03-10T10:33:18.421Z,26.79
2023-03-10T10:34:19.708Z,26.62
2023-03-10T10:35:18.396Z,26.57
2023-03-10T10:36:18.420Z,26.75
2023-03-10T10:37:18.366Z,26.82
2023-03-10T10:38:18.354Z,26.77
2023-03-10T10:39:18.346Z,26.60
2023-03-10T10:40:18.360Z,26.51
2023-03-10T10:41:18.328Z,26.46
2023-03-10T10:42:18.337Z,26.42
2023-03-10T10:43:18.306Z,26.40
2023-03-10T10:44:18.300Z,26.39
2023-03-10T10:45:18.281Z,26.65
2023-03-10T10:46:18.370Z,26.76
2023-03-10T10:47:18.264Z,26.73
2023-03-10T10:48:18.254Z,26.74
2023-03-10T10:49:18.269Z,26.58
2023-03-10T10:50:18.378Z,26.80
2023-03-10T10:51:18.224Z,26.60
2023-03-10T10:52:18.208Z,26.62
2023-03-10T10:53:18.205Z,26.46
2023-03-10T10:54:18.186Z,26.71
2023-03-10T10:55:18.174Z,26.52
2023-03-10T10:56:18.166Z,26.77
2023-03-10T10:58:18.173Z,26.59
2023-03-10T10:59:18.131Z,26.48
2023-03-10T11:00:18.122Z,26.71
2023-03-10T11:01:18.142Z,26.69
2023-03-10T11:02:18.171Z,26.80
2023-03-10T11:03:18.089Z,26.67
2023-03-10T11:04:18.080Z,26.59
2023-03-10T11:05:18.094Z,26.74
2023-03-10T11:06:18.057Z,26.80
2023-03-10T11:07:18.045Z,26.84
2023-03-10T11:10:18.021Z,26.63
2023-03-10T11:11:18.011Z,26.83
2023-03-10T11:12:17.990Z,26.83
2023-03-10T11:15:17.966Z,26.46
2023-03-10T11:16:17.960Z,26.63
2023-03-10T11:17:17.936Z,26.44
2023-03-10T11:18:17.925Z,26.44
2023-03-10T11:21:17.891Z,26.67
2023-03-10T11:22:17.879Z,26.48
2023-03-10T11:23:17.870Z,26.62
2023-03-10T11:24:17.875Z,26.76
2023-03-10T11:25:17.849Z,26.73
2023-03-10T11:26:17.835Z,26.74
2023-03-10T11:27:17.833Z,26.74
2023-03-10T11:30:17.810Z,26.82
2023-03-10T11:31:17.854Z,26.68
2023-03-10T11:32:17.825Z,26.57
2023-03-10T11:33:17.763Z,26.70
2023-03-10T11:34:17.753Z,26.81
2023-03-10T11:35:17.737Z,26.84
2023-03-10T11:36:17.832Z,26.84
2023-03-10T11:37:17.717Z,26.60
2023-03-10T11:38:17.704Z,26.61
2023-03-10T11:39:17.696Z,26.67
2023-03-10T11:40:17.682Z,26.56
2023-03-10T11:41:17.675Z,26.48
2023-03-10T11:42:17.677Z,26.71
2023-03-10T11:43:17.656Z,26.53
2023-03-10T11:45:17.632Z,26.70
2023-03-10T11:46:17.739Z,26.76
2023-03-10T11:47:17.612Z,26.64
2023-03-10T11:48:17.599Z,26.60
2023-03-10T11:49:17.590Z,26.76
2023-03-10T11:50:17.781Z,26.56
2023-03-10T11:51:17.564Z,26.69
2023-03-10T11:52:17.571Z,26.59
2023-03-10T11:53:17.550Z,26.68
2023-03-10T11:55:17.524Z,26.71
2023-03-10T11:56:17.509Z,26.60
2023-03-10T11:57:17.503Z,26.50
2023-03-10T11:58:17.488Z,26.50
2023-03-10T11:59:17.475Z,26.44
2023-03-10T12:00:17.599Z,26.47
2023-03-10T12:01:17.458Z,26.68
2023-03-10T12:02:17.467Z,26.70
2023-03-10T12:03:17.491Z,26.56
2023-03-10T12:04:17.426Z,26.73
2023-03-10T12:07:17.385Z,26.69
2023-03-10T12:08:17.378Z,26.59
2023-03-10T12:09:17.365Z,26.71
2023-03-10T12:10:17.420Z,26.79
2023-03-10T12:11:17.342Z,26.86
2023-03-10T12:12:17.330Z,26.82
2023-03-10T12:13:17.319Z,26.84
2023-03-10T12:14:17.308Z,26.87
2023-03-10T12:15:17.305Z,26.80
2023-03-10T12:16:17.430Z,26.81
2023-03-10T12:17:17.291Z,26.75
2023-03-10T12:18:17.294Z,26.59
2023-03-10T12:19:17.259Z,26.72
2023-03-10T12:20:17.370Z,26.82
2023-03-10T12:22:17.222Z,26.57
2023-03-10T12:23:17.212Z,26.47
2023-03-10T12:24:17.200Z,26.51
2023-03-10T12:25:17.192Z,26.70
2023-03-10T12:26:17.178Z,26.56
2023-03-10T12:31:17.155Z,26.79
2023-03-10T12:32:17.160Z,26.81
2023-03-10T12:33:17.103Z,26.77
2023-03-10T12:34:17.106Z,26.87
2023-03-10T12:35:17.081Z,26.87
2023-03-10T12:36:17.121Z,26.75
2023-03-10T12:37:17.057Z,26.74
2023-03-10T12:38:17.043Z,26.77
2023-03-10T12:39:17.037Z,26.56
2023-03-10T12:40:17.021Z,26.71
2023-03-10T12:41:17.012Z,26.73
2023-03-10T12:42:16.999Z,26.73
2023-03-10T12:44:16.978Z,26.76
2023-03-10T12:45:16.968Z,26.86
2023-03-10T12:47:16.947Z,26.69
2023-03-10T12:48:16.957Z,26.70
2023-03-10T12:49:16.925Z,26.72
2023-03-10T12:50:16.942Z,26.92
2023-03-10T12:51:18.430Z,26.80
2023-03-10T12:52:16.893Z,26.87
2023-03-10T12:53:16.881Z,26.88
2023-03-10T12:54:16.868Z,26.70
2023-03-10T12:55:16.889Z,26.80
2023-03-10T12:56:16.847Z,26.86
2023-03-10T12:57:17.028Z,26.79
2023-03-10T12:58:16.831Z,26.75
2023-03-10T12:59:16.813Z,26.62
2023-03-10T13:00:16.805Z,26.52
2023-03-10T13:01:16.866Z,26.57
2023-03-10T13:02:16.781Z,26.73
2023-03-10T13:03:16.830Z,26.63
2023-03-10T13:04:16.769Z,26.76
2023-03-10T13:06:16.764Z,26.54
2023-03-10T13:07:16.735Z,26.72
2023-03-10T13:08:16.724Z,26.76
2023-03-10T13:09:16.718Z,26.77
2023-03-10T13:10:16.704Z,26.86
2023-03-10T13:11:16.686Z,26.76
2023-03-10T13:12:16.679Z,26.74
2023-03-10T13:13:16.672Z,27.01
2023-03-10T13:14:16.655Z,26.89
2023-03-10T13:16:18.753Z,26.80
2023-03-10T13:17:16.619Z,26.75
2023-03-10T13:18:16.610Z,26.81
2023-03-10T13:19:16.597Z,26.85
2023-03-10T13:20:16.593Z,26.79
2023-03-10T13:21:16.576Z,26.80
2023-03-10T13:22:16.638Z,26.74
2023-03-10T13:23:16.554Z,26.86
2023-03-10T13:24:16.545Z,26.86
2023-03-10T13:25:16.531Z,26.78
2023-03-10T13:26:16.529Z,26.85
2023-03-10T13:27:16.511Z,26.87
2023-03-10T13:28:16.503Z,26.78
2023-03-10T13:29:16.490Z,26.86
2023-03-10T13:30:16.525Z,26.79
2023-03-10T13:31:16.571Z,26.86
2023-03-10T13:32:16.506Z,26.79
2023-03-10T13:33:16.445Z,27.15
2023-03-10T13:34:16.437Z,26.94
2023-03-10T13:35:16.424Z,26.98
2023-03-10T13:36:16.503Z,26.94
2023-03-10T13:37:16.427Z,26.93
2023-03-10T13:39:16.429Z,26.68
2023-03-10T13:40:16.377Z,26.74
2023-03-10T13:41:16.359Z,26.71
2023-03-10T13:42:16.348Z,26.78
2023-03-10T13:43:16.340Z,26.91
2023-03-10T13:44:16.329Z,26.81
2023-03-10T13:45:16.318Z,26.87
2023-03-10T13:46:16.438Z,27.17
2023-03-10T13:47:16.293Z,26.99
2023-03-10T13:49:16.273Z,26.84
2023-03-10T13:50:16.274Z,27.07
2023-03-10T13:51:16.249Z,27.00
2023-03-10T13:52:16.237Z,26.96
2023-03-10T13:53:16.228Z,26.99
2023-03-10T13:54:16.247Z,27.02
2023-03-10T13:55:16.207Z,26.88
2023-03-10T13:56:16.197Z,26.62
2023-03-10T13:57:16.186Z,26.72
2023-03-10T13:58:16.210Z,26.80
2023-03-10T13:59:16.165Z,27.16
2023-03-10T14:00:16.170Z,26.89
2023-03-10T14:01:16.219Z,26.97
2023-03-10T14:02:16.133Z,26.82
2023-03-10T14:03:16.144Z,26.83
2023-03-10T14:05:16.097Z,26.77
2023-03-10T14:06:16.084Z,26.87
2023-03-10T14:07:16.074Z,26.76
2023-03-10T14:08:16.065Z,26.77
2023-03-10T14:09:16.073Z,27.16
2023-03-10T14:10:16.065Z,26.91
2023-03-10T14:11:16.036Z,26.84
2023-03-10T14:12:16.019Z,26.91
2023-03-10T14:13:16.010Z,26.87
2023-03-10T14:14:15.997Z,26.84
2023-03-10T14:15:15.997Z,26.82
2023-03-10T14:16:16.006Z,26.87
2023-03-10T14:17:15.979Z,27.09
2023-03-10T14:18:15.950Z,26.96
2023-03-10T14:19:15.939Z,27.22
2023-03-10T14:20:15.931Z,26.91
2023-03-10T14:21:15.921Z,26.91
2023-03-10T14:22:15.904Z,26.77
2023-03-10T14:23:15.895Z,26.65
2023-03-10T14:24:15.885Z,26.77
2023-03-10T14:25:15.878Z,27.14
2023-03-10T14:26:15.907Z,26.91
2023-03-10T14:27:15.855Z,27.16
2023-03-10T14:28:16.932Z,26.96
2023-03-10T14:29:15.827Z,26.86
2023-03-10T14:30:15.824Z,26.71
2023-03-10T14:31:15.838Z,26.78
2023-03-10T14:32:15.817Z,26.83
2023-03-10T14:33:15.788Z,26.78
2023-03-10T14:35:15.762Z,27.04
2023-03-10T14:36:15.819Z,26.82
2023-03-10T14:38:15.736Z,27.25
2023-03-10T14:39:15.727Z,27.38
2023-03-10T14:42:15.732Z,26.85
2023-03-10T14:43:15.683Z,27.22
2023-03-10T14:44:15.671Z,27.21
2023-03-10T14:45:15.652Z,27.06
2023-03-10T14:46:15.956Z,27.06
2023-03-10T14:47:15.830Z,27.04
2023-03-10T14:48:15.823Z,27.27
2023-03-10T14:49:15.617Z,26.94
2023-03-10T14:50:15.598Z,26.98
2023-03-10T14:51:25.628Z,26.93
2023-03-10T14:52:15.577Z,26.82
2023-03-10T14:53:15.576Z,26.85
2023-03-10T14:56:15.536Z,26.91
2023-03-10T14:57:15.519Z,26.98
2023-03-10T14:58:15.532Z,26.93
2023-03-10T14:59:15.502Z,26.82
2023-03-10T15:00:15.505Z,26.80